createdAt,value
2018-02-09T00:02:16.700Z,98516.91
2018-02-09T00:04:44.160Z,98522.09
2018-02-09T00:07:11.714Z,98514.46
2018-02-09T00:09:39.442Z,98516.53
2018-02-09T00:12:06.898Z,98516.25
2018-02-09T00:14:34.357Z,98518.14
2018-02-09T00:17:02.376Z,98515.92
2018-02-09T00:19:29.832Z,98519.85
2018-02-09T00:21:57.296Z,98509.97
2018-02-09T00:24:25.064Z,98511.11
2018-02-09T00:26:52.526Z,98515.00
2018-02-09T00:29:19.984Z,98522.11
2018-02-09T00:31:47.740Z,98522.05
2018-02-09T00:34:15.204Z,98514.13
2018-02-09T00:36:42.663Z,98516.03
2018-02-09T00:39:10.749Z,98527.15
2018-02-09T00:41:38.210Z,98520.89
2018-02-09T00:44:05.689Z,98527.07
2018-02-09T00:46:33.441Z,98521.95
2018-02-09T00:49:00.904Z,98530.67
2018-02-09T00:51:28.358Z,98521.52
2018-02-09T00:53:56.121Z,98523.83
2018-02-09T00:56:23.585Z,98524.81
2018-02-09T00:58:51.053Z,98520.16
2018-02-09T01:01:18.735Z,98521.02
2018-02-09T01:03:46.201Z,98524.50
2018-02-09T01:06:13.657Z,98514.84
2018-02-09T01:08:41.498Z,98516.20
2018-02-09T01:11:08.968Z,98514.33
2018-02-09T01:13:36.431Z,98515.42
2018-02-09T01:16:04.181Z,98512.54
2018-02-09T01:18:31.961Z,98508.67
2018-02-09T01:20:59.419Z,98508.36
2018-02-09T01:23:27.173Z,98509.36
2018-02-09T01:25:54.644Z,98508.81
2018-02-09T01:28:22.097Z,98512.95
2018-02-09T01:30:49.861Z,98503.19
2018-02-09T01:33:17.324Z,98505.36
2018-02-09T01:35:44.787Z,98502.07
2018-02-09T01:38:12.550Z,98502.92
2018-02-09T01:40:40.020Z,98504.22
2018-02-09T01:43:07.477Z,98499.47
2018-02-09T01:45:35.704Z,98500.41
2018-02-09T01:48:03.173Z,98498.77
2018-02-09T01:50:30.633Z,98502.51
2018-02-09T01:52:58.532Z,98499.67
2018-02-09T01:55:25.998Z,98503.48
2018-02-09T01:57:53.463Z,98500.67
2018-02-09T02:00:21.088Z,98501.38
2018-02-09T02:02:48.558Z,98496.89
2018-02-09T02:05:17.655Z,98494.42
2018-02-09T02:07:45.592Z,98492.28
2018-02-09T02:10:13.051Z,98488.77
2018-02-09T02:12:40.541Z,98497.38
2018-02-09T02:15:08.440Z,98490.51
2018-02-09T02:17:35.905Z,98489.26
2018-02-09T02:20:03.411Z,98490.56
2018-02-09T02:22:31.446Z,98488.12
2018-02-09T02:24:58.922Z,98490.47
2018-02-09T02:27:26.377Z,98489.41
2018-02-09T02:29:54.115Z,98484.22
2018-02-09T02:32:21.577Z,98481.72
2018-02-09T02:34:49.032Z,98485.09
2018-02-09T02:37:16.809Z,98478.51
2018-02-09T02:39:44.265Z,98479.68
2018-02-09T02:42:11.730Z,98482.91
2018-02-09T02:44:39.496Z,98482.69
2018-02-09T02:47:07.644Z,98477.90
2018-02-09T02:49:35.114Z,98475.05
2018-02-09T02:52:03.093Z,98474.45
2018-02-09T02:54:30.554Z,98478.86
2018-02-09T02:56:58.381Z,98475.70
2018-02-09T02:59:26.051Z,98470.17
2018-02-09T03:01:53.644Z,98473.25
2018-02-09T03:04:21.105Z,98470.14
2018-02-09T03:06:48.969Z,98465.39
2018-02-09T03:09:16.437Z,98467.58
2018-02-09T03:11:43.898Z,98464.64
2018-02-09T03:14:11.776Z,98466.03
2018-02-09T03:16:39.261Z,98468.71
2018-02-09T03:19:06.720Z,98466.12
2018-02-09T03:21:34.474Z,98469.73
2018-02-09T03:24:01.945Z,98470.23
2018-02-09T03:26:29.413Z,98469.67
2018-02-09T03:28:57.150Z,98462.09
2018-02-09T03:31:24.614Z,98462.23
2018-02-09T03:33:52.080Z,98465.31
2018-02-09T03:36:20.139Z,98466.92
2018-02-09T03:38:47.609Z,98459.00
2018-02-09T03:41:15.069Z,98459.59
2018-02-09T03:43:42.832Z,98464.06
2018-02-09T03:46:10.302Z,98467.00
2018-02-09T03:48:40.061Z,98459.44
2018-02-09T03:51:07.666Z,98462.58
2018-02-09T03:53:35.132Z,98465.16
2018-02-09T03:56:02.596Z,98462.33
2018-02-09T03:58:30.362Z,98463.66
2018-02-09T04:00:57.827Z,98461.02
2018-02-09T04:03:25.318Z,98462.12
2018-02-09T04:05:53.360Z,98460.95
2018-02-09T04:08:20.827Z,98459.45
2018-02-09T04:10:48.287Z,98462.73
2018-02-09T04:13:16.070Z,98459.52
2018-02-09T04:15:43.541Z,98465.48
2018-02-09T04:18:11.009Z,98459.94
2018-02-09T04:20:38.641Z,98459.70
2018-02-09T04:23:06.112Z,98456.42
2018-02-09T04:25:33.574Z,98453.80
2018-02-09T04:28:01.424Z,98449.66
2018-02-09T04:30:28.881Z,98448.94
2018-02-09T04:32:56.354Z,98453.58
2018-02-09T04:35:24.107Z,98446.23
2018-02-09T04:37:51.576Z,98440.62
2018-02-09T04:40:19.030Z,98439.86
2018-02-09T04:42:46.792Z,98436.22
2018-02-09T04:45:14.272Z,98440.45
2018-02-09T04:47:41.738Z,98440.95
2018-02-09T04:50:10.576Z,98443.78
2018-02-09T04:52:38.032Z,98439.20
2018-02-09T04:55:05.500Z,98444.62
2018-02-09T04:57:33.904Z,98431.11
2018-02-09T05:00:01.382Z,98436.05
2018-02-09T05:02:28.845Z,98438.20
2018-02-09T05:04:56.697Z,98438.68
2018-02-09T05:07:24.167Z,98443.23
2018-02-09T05:09:51.625Z,98435.89
2018-02-09T05:12:19.341Z,98436.26
2018-02-09T05:14:46.802Z,98440.50
2018-02-09T05:17:14.323Z,98443.78
2018-02-09T05:19:42.091Z,98433.24
2018-02-09T05:22:09.551Z,98434.54
2018-02-09T05:24:37.013Z,98438.08
2018-02-09T05:27:04.756Z,98438.89
2018-02-09T05:29:32.281Z,98444.55
2018-02-09T05:31:59.745Z,98441.23
2018-02-09T05:34:27.726Z,98439.29
2018-02-09T05:36:55.184Z,98433.94
2018-02-09T05:39:22.647Z,98443.05
2018-02-09T05:41:50.446Z,98438.30
2018-02-09T05:44:17.913Z,98436.95
2018-02-09T05:46:45.381Z,98437.53
2018-02-09T05:49:13.103Z,98436.25
2018-02-09T05:51:40.564Z,98442.45
2018-02-09T05:54:08.087Z,98436.83
2018-02-09T05:56:35.816Z,98443.39
2018-02-09T05:59:03.288Z,98440.50
2018-02-09T06:01:30.744Z,98439.78
2018-02-09T06:03:58.487Z,98443.00
2018-02-09T06:06:25.967Z,98439.53
2018-02-09T06:08:53.430Z,98444.80
2018-02-09T06:11:21.184Z,98444.65
2018-02-09T06:13:48.644Z,98439.73
2018-02-09T06:16:16.113Z,98444.26
2018-02-09T06:18:44.176Z,98439.48
2018-02-09T06:21:11.996Z,98435.77
2018-02-09T06:23:39.460Z,98437.48
2018-02-09T06:26:07.212Z,98438.52
2018-02-09T06:28:34.681Z,98440.28
2018-02-09T06:31:02.147Z,98439.81
2018-02-09T06:33:30.211Z,98442.29
2018-02-09T06:35:57.674Z,98437.44
2018-02-09T06:38:25.139Z,98444.00
2018-02-09T06:40:52.811Z,98443.26
2018-02-09T06:43:20.270Z,98443.67
2018-02-09T06:45:47.733Z,98445.17
2018-02-09T06:48:15.541Z,98444.05
2018-02-09T06:50:43.000Z,98440.72
2018-02-09T06:53:11.144Z,98446.94
2018-02-09T06:55:39.145Z,98446.89
2018-02-09T06:58:06.596Z,98439.83
2018-02-09T07:00:34.045Z,98442.91
2018-02-09T07:03:02.142Z,98435.34
2018-02-09T07:05:29.597Z,98440.52
2018-02-09T07:07:57.052Z,98438.39
2018-02-09T07:10:24.830Z,98443.08
2018-02-09T07:12:52.280Z,98439.18
2018-02-09T07:15:19.748Z,98437.13
2018-02-09T07:17:47.514Z,98442.47
2018-02-09T07:20:17.878Z,98436.01
2018-02-09T07:22:45.351Z,98433.30
2018-02-09T07:25:13.281Z,98436.25
2018-02-09T07:27:40.790Z,98435.47
2018-02-09T07:30:08.223Z,98430.09
2018-02-09T07:32:35.963Z,98435.55
2018-02-09T07:35:03.424Z,98433.02
2018-02-09T07:37:30.886Z,98434.62
2018-02-09T07:39:58.652Z,98431.97
2018-02-09T07:42:26.101Z,98431.61
2018-02-09T07:44:53.563Z,98430.94
2018-02-09T07:47:21.334Z,98431.71
2018-02-09T07:49:48.775Z,98424.25
2018-02-09T07:52:16.243Z,98424.46
2018-02-09T07:54:45.156Z,98427.05
2018-02-09T07:57:12.621Z,98426.16
2018-02-09T07:59:40.076Z,98420.78
2018-02-09T08:02:07.924Z,98423.41
2018-02-09T08:04:35.369Z,98427.67
2018-02-09T08:07:02.818Z,98418.72
2018-02-09T08:09:30.585Z,98428.27
2018-02-09T08:11:58.085Z,98426.72
2018-02-09T08:14:25.509Z,98426.84
2018-02-09T08:16:53.315Z,98423.42
2018-02-09T08:19:20.777Z,98419.44
2018-02-09T08:21:48.225Z,98426.97
2018-02-09T08:24:16.000Z,98424.53
2018-02-09T08:26:43.456Z,98416.47
2018-02-09T08:29:10.916Z,98414.06
2018-02-09T08:31:38.693Z,98414.50
2018-02-09T08:34:06.150Z,98413.93
2018-02-09T08:36:33.607Z,98421.50
2018-02-09T08:39:01.371Z,98413.91
2018-02-09T08:41:28.815Z,98412.16
2018-02-09T08:43:56.269Z,98417.98
2018-02-09T08:46:24.048Z,98413.63
2018-02-09T08:48:51.521Z,98406.09
2018-02-09T08:51:18.974Z,98402.75
2018-02-09T08:53:46.748Z,98407.36
2018-02-09T08:56:14.269Z,98406.17
2018-02-09T08:58:41.740Z,98408.87
2018-02-09T09:01:09.313Z,98401.52
2018-02-09T09:03:36.759Z,98401.13
2018-02-09T09:06:04.208Z,98404.80
2018-02-09T09:08:32.270Z,98398.84
2018-02-09T09:10:59.723Z,98395.19
2018-02-09T09:13:27.168Z,98394.09
2018-02-09T09:15:55.123Z,98390.56
2018-02-09T09:18:22.878Z,98389.47
2018-02-09T09:20:50.337Z,98387.73
2018-02-09T09:23:18.070Z,98389.45
2018-02-09T09:25:45.517Z,98384.72
2018-02-09T09:28:13.030Z,98393.77
2018-02-09T09:30:40.800Z,98391.28
2018-02-09T09:33:08.256Z,98390.81
2018-02-09T09:35:35.708Z,98389.36
2018-02-09T09:38:04.101Z,98389.45
2018-02-09T09:40:31.569Z,98383.76
2018-02-09T09:42:59.018Z,98380.59
2018-02-09T09:45:26.784Z,98379.53
2018-02-09T09:47:54.240Z,98384.83
2018-02-09T09:50:21.698Z,98382.26
2018-02-09T09:52:49.361Z,98384.65
2018-02-09T09:55:16.816Z,98380.66
2018-02-09T09:57:45.080Z,98386.72
2018-02-09T10:00:12.768Z,98389.50
2018-02-09T10:02:41.026Z,98384.43
2018-02-09T10:05:08.482Z,98378.27
2018-02-09T10:07:36.108Z,98378.31
2018-02-09T10:10:03.578Z,98378.87
2018-02-09T10:12:31.040Z,98376.58
2018-02-09T10:14:59.072Z,98366.00
2018-02-09T10:17:26.523Z,98365.71
2018-02-09T10:19:53.974Z,98357.65
2018-02-09T10:22:22.068Z,98357.51
2018-02-09T10:24:49.529Z,98353.82
2018-02-09T10:27:16.993Z,98352.08
2018-02-09T10:29:44.743Z,98348.50
2018-02-09T10:32:12.224Z,98348.19
2018-02-09T10:34:39.686Z,98344.16
2018-02-09T10:37:07.739Z,98337.69
2018-02-09T10:39:35.205Z,98339.38
2018-02-09T10:42:02.665Z,98331.47
2018-02-09T10:44:30.433Z,98329.33
2018-02-09T10:46:57.884Z,98323.51
2018-02-09T10:49:25.353Z,98320.56
2018-02-09T10:51:53.121Z,98311.34
2018-02-09T10:54:20.608Z,98307.72
2018-02-09T10:56:48.065Z,98308.86
2018-02-09T10:59:17.030Z,98305.17
2018-02-09T11:01:44.481Z,98299.91
2018-02-09T11:04:11.959Z,98295.63
2018-02-09T11:06:40.036Z,98294.02
2018-02-09T11:09:07.500Z,98285.37
2018-02-09T11:11:36.202Z,98290.33
2018-02-09T11:14:04.875Z,98282.77
2018-02-09T11:16:32.332Z,98287.48
2018-02-09T11:18:59.792Z,98274.63
2018-02-09T11:21:28.416Z,98276.45
2018-02-09T11:23:56.934Z,98271.41
2018-02-09T11:26:24.586Z,98272.25
2018-02-09T11:28:52.920Z,98264.86
2018-02-09T11:31:20.371Z,98262.13
2018-02-09T11:33:48.552Z,98256.87
2018-02-09T11:36:17.300Z,98254.09
2018-02-09T11:38:44.869Z,98256.95
2018-02-09T11:41:12.329Z,98248.80
2018-02-09T11:43:40.099Z,98244.45
2018-02-09T11:46:07.522Z,98243.66
2018-02-09T11:48:34.982Z,98245.19
2018-02-09T11:51:03.481Z,98244.70
2018-02-09T11:53:30.964Z,98243.52
2018-02-09T11:55:58.916Z,98237.23
2018-02-09T11:58:26.678Z,98241.28
2018-02-09T12:00:54.427Z,98234.03
2018-02-09T12:03:21.929Z,98239.50
2018-02-09T12:05:49.690Z,98232.30
2018-02-09T12:08:17.140Z,98233.98
2018-02-09T12:10:44.627Z,98234.61
2018-02-09T12:13:12.504Z,98227.63
2018-02-09T12:15:39.964Z,98229.96
2018-02-09T12:18:07.429Z,98224.23
2018-02-09T12:20:35.103Z,98223.91
2018-02-09T12:23:02.561Z,98220.41
2018-02-09T12:25:30.025Z,98211.20
2018-02-09T12:27:57.896Z,98214.83
2018-02-09T12:30:25.348Z,98211.64
2018-02-09T12:32:52.815Z,98208.48
2018-02-09T12:35:20.872Z,98213.22
2018-02-09T12:37:48.336Z,98208.97
2018-02-09T12:40:15.780Z,98215.27
2018-02-09T12:42:43.556Z,98205.55
2018-02-09T12:45:11.004Z,98202.89
2018-02-09T12:47:38.461Z,98204.46
2018-02-09T12:50:06.232Z,98205.59
2018-02-09T12:52:33.682Z,98200.79
2018-02-09T12:55:01.156Z,98198.29
2018-02-09T12:57:29.244Z,98203.92
2018-02-09T12:59:56.700Z,98194.84
2018-02-09T13:02:24.905Z,98192.13
2018-02-09T13:04:52.861Z,98185.05
2018-02-09T13:07:20.310Z,98186.70
2018-02-09T13:09:47.761Z,98183.78
2018-02-09T13:12:27.205Z,98179.16
2018-02-09T13:14:54.714Z,98182.23
2018-02-09T13:17:23.628Z,98173.89
2018-02-09T13:19:51.428Z,98171.27
2018-02-09T13:25:24.149Z,98164.26
2018-02-09T13:27:51.604Z,98163.89
2018-02-09T13:30:19.067Z,98163.83
2018-02-09T13:32:58.820Z,98165.84
2018-02-09T13:35:26.269Z,98162.66
2018-02-09T13:37:53.724Z,98156.24
2018-02-09T13:40:21.499Z,98159.98
2018-02-09T13:42:48.944Z,98155.11
2018-02-09T13:45:16.414Z,98155.72
2018-02-09T13:47:44.188Z,98162.05
2018-02-09T13:50:11.645Z,98150.22
2018-02-09T13:52:39.108Z,98155.37
2018-02-09T13:55:06.896Z,98153.05
2018-02-09T13:57:34.363Z,98159.61
2018-02-09T14:00:01.819Z,98153.56
2018-02-09T14:02:29.870Z,98157.38
2018-02-09T14:04:57.334Z,98154.23
2018-02-09T14:07:24.792Z,98152.55
2018-02-09T14:09:52.544Z,98154.42
2018-02-09T14:12:19.989Z,98150.80
2018-02-09T14:14:47.448Z,98149.48
2018-02-09T14:17:15.246Z,98149.96
2018-02-09T14:19:43.368Z,98145.94
2018-02-09T14:22:10.821Z,98138.64
2018-02-09T14:24:38.545Z,98143.03
2018-02-09T14:27:06.009Z,98142.91
2018-02-09T14:29:33.467Z,98130.77
2018-02-09T14:32:01.523Z,98136.92
2018-02-09T14:34:28.964Z,98140.95
2018-02-09T14:36:56.409Z,98140.33
2018-02-09T14:39:24.217Z,98135.16
2018-02-09T14:41:51.664Z,98141.52
2018-02-09T14:44:20.608Z,98139.36
2018-02-09T14:46:48.444Z,98138.31
2018-02-09T14:49:15.903Z,98135.52
2018-02-09T14:51:43.366Z,98135.95
2018-02-09T14:54:11.120Z,98139.97
2018-02-09T14:56:38.589Z,98131.72
2018-02-09T14:59:06.074Z,98136.19
2018-02-09T15:01:34.140Z,98141.36
2018-02-09T15:04:02.010Z,98133.77
2018-02-09T15:06:29.472Z,98140.72
2018-02-09T15:08:57.454Z,98135.99
2018-02-09T15:11:24.969Z,98140.59
2018-02-09T15:13:52.432Z,98135.64
2018-02-09T15:16:20.415Z,98135.95
2018-02-09T15:18:47.870Z,98130.33
2018-02-09T15:21:16.224Z,98134.88
2018-02-09T15:23:43.972Z,98131.33
2018-02-09T15:26:11.704Z,98136.96
2018-02-09T15:28:39.188Z,98132.31
2018-02-09T15:31:07.020Z,98135.36
2018-02-09T15:33:34.460Z,98128.88
2018-02-09T15:36:01.924Z,98126.34
2018-02-09T15:38:29.706Z,98126.22
2018-02-09T15:40:57.498Z,98131.12
2018-02-09T15:43:24.947Z,98132.75
2018-02-09T15:45:52.694Z,98127.21
2018-02-09T15:48:20.143Z,98126.72
2018-02-09T15:50:47.610Z,98129.23
2018-02-09T15:53:15.389Z,98128.77
2018-02-09T15:55:42.840Z,98132.05
2018-02-09T15:58:10.288Z,98127.54
2018-02-09T16:00:38.011Z,98125.47
2018-02-09T16:03:05.500Z,98129.91
2018-02-09T16:05:34.808Z,98129.16
2018-02-09T16:08:02.618Z,98132.08
2018-02-09T16:10:30.081Z,98127.21
2018-02-09T16:12:57.532Z,98131.89
2018-02-09T16:15:25.293Z,98133.58
2018-02-09T16:17:52.764Z,98129.69
2018-02-09T16:20:20.690Z,98125.06
2018-02-09T16:22:49.235Z,98125.95
2018-02-09T16:25:16.688Z,98123.91
2018-02-09T16:27:44.137Z,98128.51
2018-02-09T16:30:11.900Z,98120.52
2018-02-09T16:32:39.345Z,98126.98
2018-02-09T16:35:06.797Z,98126.75
2018-02-09T16:37:34.592Z,98128.37
2018-02-09T16:40:02.045Z,98131.52
2018-02-09T16:42:29.551Z,98128.73
2018-02-09T16:44:57.986Z,98124.30
2018-02-09T16:47:25.458Z,98128.48
2018-02-09T16:49:52.918Z,98128.51
2018-02-09T16:52:21.167Z,98127.31
2018-02-09T16:54:48.613Z,98131.19
2018-02-09T16:57:16.710Z,98128.52
2018-02-09T16:59:44.490Z,98137.94
2018-02-09T17:02:11.937Z,98141.34
2018-02-09T17:04:39.765Z,98143.86
2018-02-09T17:07:07.977Z,98146.52
2018-02-09T17:09:35.634Z,98148.73
2018-02-09T17:12:03.149Z,98146.56
2018-02-09T17:14:31.424Z,98155.43
2018-02-09T17:16:58.874Z,98151.64
2018-02-09T17:19:26.325Z,98151.96
2018-02-09T17:21:54.395Z,98155.05
2018-02-09T17:24:21.840Z,98156.41
2018-02-09T17:26:49.288Z,98158.00
2018-02-09T17:29:17.088Z,98153.39
2018-02-09T17:31:44.536Z,98151.42
2018-02-09T17:34:11.977Z,98150.15
2018-02-09T17:36:39.773Z,98149.91
2018-02-09T17:39:07.220Z,98149.80
2018-02-09T17:41:34.666Z,98150.87
2018-02-09T17:44:02.461Z,98149.41
2018-02-09T17:46:29.914Z,98147.94
2018-02-09T17:48:57.381Z,98150.30
2018-02-09T17:51:25.164Z,98148.09
2018-02-09T17:53:52.609Z,98143.77
2018-02-09T17:56:20.075Z,98150.06
2018-02-09T17:58:48.474Z,98154.02
2018-02-09T18:01:15.939Z,98154.80
2018-02-09T18:03:43.390Z,98151.39
2018-02-09T18:06:11.136Z,98156.92
2018-02-09T18:08:38.933Z,98156.72
2018-02-09T18:11:07.048Z,98155.48
2018-02-09T18:13:34.738Z,98153.91
2018-02-09T18:16:02.181Z,98161.22
2018-02-09T18:18:29.785Z,98160.55
2018-02-09T18:20:57.732Z,98157.46
2018-02-09T18:23:25.231Z,98157.59
2018-02-09T18:25:52.688Z,98160.50
2018-02-09T18:28:20.424Z,98155.39
2018-02-09T18:30:47.877Z,98161.26
2018-02-09T18:33:15.330Z,98160.41
2018-02-09T18:35:43.114Z,98155.39
2018-02-09T18:38:10.560Z,98160.72
2018-02-09T18:40:38.017Z,98162.78
2018-02-09T18:43:05.644Z,98157.35
2018-02-09T18:45:33.098Z,98160.37
2018-02-09T18:48:00.558Z,98157.23
2018-02-09T18:50:28.509Z,98162.77
2018-02-09T18:52:55.973Z,98163.20
2018-02-09T18:55:23.465Z,98161.80
2018-02-09T18:57:51.160Z,98162.44
2018-02-09T19:00:18.609Z,98169.50
2018-02-09T19:02:46.085Z,98166.09
2018-02-09T19:05:13.852Z,98162.80
2018-02-09T19:07:41.310Z,98159.61
2018-02-09T19:10:09.925Z,98159.60
2018-02-09T19:12:37.664Z,98157.22
2018-02-09T19:15:05.123Z,98159.30
2018-02-09T19:17:32.571Z,98160.68
2018-02-09T19:20:00.463Z,98155.48
2018-02-09T19:22:27.957Z,98156.72
2018-02-09T19:24:55.407Z,98157.24
2018-02-09T19:27:23.157Z,98161.09
2018-02-09T19:29:50.625Z,98162.28
2018-02-09T19:32:18.886Z,98153.01
2018-02-09T19:34:46.805Z,98157.44
2018-02-09T19:37:14.260Z,98160.38
2018-02-09T19:39:42.584Z,98158.33
2018-02-09T19:42:10.415Z,98157.73
2018-02-09T19:44:37.908Z,98153.37
2018-02-09T19:47:05.364Z,98154.66
2018-02-09T19:49:33.062Z,98157.23
2018-02-09T19:52:01.128Z,98155.52
2018-02-09T19:54:28.881Z,98157.89
2018-02-09T19:56:56.961Z,98159.20
2018-02-09T19:59:24.735Z,98157.51
2018-02-09T20:01:52.238Z,98156.02
2018-02-09T20:04:21.033Z,98162.45
2018-02-09T20:06:50.838Z,98161.25
2018-02-09T20:09:18.662Z,98169.20
2018-02-09T20:11:46.167Z,98161.17
2018-02-09T20:14:14.409Z,98162.40
2018-02-09T20:16:42.876Z,98158.05
2018-02-09T20:19:10.415Z,98158.69
2018-02-09T20:21:38.337Z,98161.27
2018-02-09T20:24:05.801Z,98154.08
2018-02-09T20:26:33.750Z,98155.47
2018-02-09T20:29:01.836Z,98157.79
2018-02-09T20:31:29.298Z,98157.95
2018-02-09T20:33:56.765Z,98157.84
2018-02-09T20:36:25.165Z,98160.95
2018-02-09T20:38:52.747Z,98157.49
2018-02-09T20:41:20.242Z,98159.95
2018-02-09T20:43:48.237Z,98161.36
2018-02-09T20:46:15.701Z,98158.20
2018-02-09T20:48:43.166Z,98169.70
2018-02-09T20:51:10.922Z,98163.59
2018-02-09T20:53:38.381Z,98159.91
2018-02-09T20:56:06.365Z,98157.72
2018-02-09T20:58:34.824Z,98153.02
2018-02-09T21:01:03.141Z,98160.77
2018-02-09T21:03:30.617Z,98158.56
2018-02-09T21:05:58.440Z,98158.87
2018-02-09T21:08:26.276Z,98158.50
2018-02-09T21:10:54.449Z,98157.69
2018-02-09T21:13:23.541Z,98160.72
2018-02-09T21:15:51.003Z,98166.98
2018-02-09T21:18:18.459Z,98159.39
2018-02-09T21:20:46.285Z,98162.03
2018-02-09T21:23:14.436Z,98168.87
2018-02-09T21:25:41.888Z,98165.12
2018-02-09T21:28:09.972Z,98162.03
2018-02-09T21:30:37.432Z,98160.72
2018-02-09T21:33:04.883Z,98160.75
2018-02-09T21:35:32.974Z,98157.38
2018-02-09T21:38:00.529Z,98160.89
2018-02-09T21:40:27.976Z,98158.31
2018-02-09T21:42:55.868Z,98167.14
2018-02-09T21:45:23.443Z,98163.91
2018-02-09T21:47:50.948Z,98166.64
2018-02-09T21:50:18.860Z,98156.00
2018-02-09T21:52:46.327Z,98160.80
2018-02-09T21:55:14.124Z,98162.73
2018-02-09T21:57:42.828Z,98164.67
2018-02-09T22:00:10.283Z,98160.61
2018-02-09T22:02:37.740Z,98163.98
2018-02-09T22:05:05.795Z,98162.61
2018-02-09T22:07:33.245Z,98162.73
2018-02-09T22:10:02.806Z,98161.89
2018-02-09T22:12:30.743Z,98161.16
2018-02-09T22:14:58.395Z,98165.38
2018-02-09T22:17:25.873Z,98154.92
2018-02-09T22:19:54.217Z,98160.31
2018-02-09T22:22:21.678Z,98167.41
2018-02-09T22:24:49.128Z,98160.79
2018-02-09T22:27:16.910Z,98163.19
2018-02-09T22:29:45.068Z,98165.91
2018-02-09T22:32:12.808Z,98163.16
2018-02-09T22:34:40.539Z,98168.30
2018-02-09T22:37:07.996Z,98170.89
2018-02-09T22:39:35.443Z,98168.14
2018-02-09T22:42:03.510Z,98166.84
2018-02-09T22:44:30.961Z,98166.68
2018-02-09T22:46:58.440Z,98165.00
2018-02-09T22:49:26.206Z,98160.90
2018-02-09T22:51:53.666Z,98165.34
2018-02-09T22:54:21.121Z,98159.36
2018-02-09T22:56:48.889Z,98164.11
2018-02-09T22:59:16.356Z,98161.59
2018-02-09T23:01:43.809Z,98160.92
2018-02-09T23:04:11.571Z,98160.83
2018-02-09T23:06:39.021Z,98162.37
2018-02-09T23:09:06.480Z,98163.43
2018-02-09T23:11:34.871Z,98165.02
2018-02-09T23:14:02.320Z,98164.80
2018-02-09T23:16:29.772Z,98168.69
2018-02-09T23:18:57.698Z,98169.40
2018-02-09T23:21:25.184Z,98165.20
2018-02-09T23:23:52.661Z,98167.36
2018-02-09T23:26:20.549Z,98166.47
2018-02-09T23:28:48.000Z,98166.23
2018-02-09T23:31:15.459Z,98166.69
2018-02-09T23:33:43.284Z,98167.50
2018-02-09T23:36:10.749Z,98170.39
2018-02-09T23:38:38.209Z,98173.16
2018-02-09T23:41:06.250Z,98171.73
2018-02-09T23:43:33.701Z,98166.44
2018-02-09T23:46:01.168Z,98173.75
2018-02-09T23:48:29.243Z,98174.80
2018-02-09T23:50:56.709Z,98179.79
2018-02-09T23:53:24.170Z,98177.98
2018-02-09T23:55:51.928Z,98179.72
2018-02-09T23:58:19.386Z,98179.98
